Home   Weather   USA   Roanoke Rapids   Past weeks
Flag for USA

Past Weather in Roanoke Rapids, North Carolina, USA — Yesterday and Last 2 Weeks

Currently: 54 °F. Overcast. (Weather station: Emporia-Greensville Regional Airport, USA). See more current weather

Past Weather in Roanoke Rapids — Graph

°F

Roanoke Rapids Temperature Yesterday

Maximum temperature yesterday: 60 °F (at 2:35 pm)
Minimum temperature yesterday: 47 °F (at 3:15 am)
Average temperature yesterday: 53 °F

High & Low Weather Summary for the Past Weeks

 TemperatureHumidityPressure
High92 °F (Sep 22, 3:35 pm)100% (Sep 20, 7:15 am)30.30 "Hg (Sep 20, 7:15 am)
Low40 °F (Sep 28, 6:55 am)22% (Sep 27, 2:15 pm)29.64 "Hg (Sep 22, 4:15 pm)
Average62 °F71%30.00 "Hg
* Reported Sep 20 7:15 am — Oct 5 7:15 am, Roanoke Rapids. Weather by CustomWeather, © 2022

Note: Actual official high and low records may vary slightly from our data, if they occured in-between our weather recording intervals... More about our weather records

Roanoke Rapids Weather History for the Previous 24 Hours

Scroll right to see more
 ConditionsComfort  
Time TempWeatherWind HumidityBarometerVisibility
7:15 am
Wed, Oct 5
54 °FOvercast.5 mph79%29.95 "Hg10 mi
6:35 am54 °FOvercast.6 mph77%29.94 "Hg10 mi
5:35 am53 °FOvercast.7 mph80%29.93 "Hg10 mi
5:15 am53 °FOvercast.6 mph79%29.93 "Hg10 mi
4:35 am53 °FOvercast.6 mph80%29.93 "Hg10 mi
4:15 am53 °FOvercast.7 mph79%29.94 "Hg10 mi
3:35 am53 °FOvercast.6 mph80%29.94 "Hg10 mi
3:15 am53 °FOvercast.7 mph80%29.95 "Hg10 mi
2:15 am53 °FOvercast.6 mph79%29.96 "Hg10 mi
1:15 am53 °FOvercast.7 mph78%29.97 "Hg10 mi
12:35 am53 °FOvercast.6 mph79%29.97 "Hg10 mi
12:15 am53 °FMostly cloudy.5 mph78%29.98 "Hg10 mi
11:35 pm
Tue, Oct 4
54 °FOvercast.7 mph76%29.99 "Hg10 mi
10:35 pm54 °FMostly cloudy.6 mph75%29.99 "Hg10 mi
10:15 pm54 °FOvercast.7 mph75%29.99 "Hg10 mi
9:35 pm53 °FMostly cloudy.8 mph77%29.99 "Hg10 mi
9:15 pm54 °FOvercast.5 mph76%30.00 "Hg10 mi
7:35 pm55 °FOvercast.9 mph72%29.99 "Hg10 mi
7:15 pm55 °FOvercast.12 mph72%29.99 "Hg10 mi
6:35 pm57 °FOvercast.10 mph66%29.98 "Hg10 mi
6:15 pm58 °FOvercast.6 mph64%29.98 "Hg10 mi
5:35 pm58 °FOvercast.10 mph62%29.97 "Hg10 mi
5:15 pm59 °FOvercast.9 mph60%29.97 "Hg10 mi
4:35 pm59 °FOvercast.10 mph59%29.97 "Hg10 mi
4:15 pm60 °FOvercast.8 mph58%29.97 "Hg10 mi
3:35 pm60 °FOvercast.9 mph56%29.97 "Hg10 mi
3:15 pm60 °FOvercast.9 mph56%29.97 "Hg10 mi
2:35 pm60 °FOvercast.10 mph56%29.98 "Hg10 mi
2:15 pm59 °FOvercast.10 mph59%29.99 "Hg10 mi
1:35 pm59 °FOvercast.9 mph57%30.00 "Hg10 mi
1:15 pm59 °FOvercast.10 mph58%30.00 "Hg10 mi
11:35 am58 °FOvercast.10 mph57%30.02 "Hg10 mi
11:15 am57 °FPartly sunny.17 mph57%30.02 "Hg10 mi
10:35 am57 °FScattered clouds.16 mph58%30.03 "Hg10 mi
9:35 am53 °FScattered clouds.13 mph67%30.05 "Hg10 mi
9:15 am52 °FBroken clouds.16 mph70%30.05 "Hg10 mi
8:55 am52 °FBroken clouds.13 mph72%30.05 "Hg10 mi
8:35 am50 °FScattered clouds.9 mph77%30.06 "Hg10 mi
8:15 am50 °FOvercast.9 mph78%30.06 "Hg10 mi
Weather by CustomWeather, © 2022

See weather overview